Terminal Aerodrome Forecast
Issued by NWS

Home | Current Version | Previous Version | Graphics & Text | Print | Product List | Glossary On
Versions: 1 2 3 4 5 6 7 8 9 10 11 12 13 14 15 16 17
998
FTUS43 KGRB 291024 AAA
TAFCWA
TAF AMD
KCWA 291024Z 2910/3006 20005KT P6SM SCT007 BKN050
      TEMPO 2910/2914 4SM -SHRA BR BKN007 BKN015
     FM291400 23006KT 6SM -SHRA OVC015
     FM291800 26011KT P6SM -SHRA OVC025
     FM292000 26012KT P6SM VCSH BKN035
     FM300000 28010KT P6SM SCT050
     FM300200 27007KT P6SM SCT150
      AMD LTD TO CLD VIS AND WIND TIL 291100=

USA.gov is the U.S. government's official web portal to all federal, state and local government web resources and services.